createdAt,value
2017-10-11T13:19:59.899Z,23.23
2017-10-11T13:22:32.505Z,20.97
2017-10-11T13:25:02.263Z,22.30
2017-10-11T13:27:31.329Z,20.07
2017-10-11T13:30:02.992Z,21.90
2017-10-11T13:32:33.729Z,21.90
2017-10-11T13:35:05.341Z,20.30
2017-10-11T13:37:36.517Z,21.70
2017-10-11T13:40:05.746Z,20.80
2017-10-11T13:42:37.877Z,21.30
2017-10-11T13:45:07.217Z,19.87
2017-10-11T13:47:36.029Z,21.87
2017-10-11T13:50:08.174Z,19.73
2017-10-11T13:52:38.815Z,20.40
2017-10-11T13:55:08.904Z,20.10
2017-10-11T13:57:38.542Z,20.90
2017-10-11T14:00:08.068Z,22.10
2017-10-11T14:02:36.920Z,21.00
2017-10-11T14:05:06.508Z,21.47
2017-10-11T14:07:37.182Z,20.13
2017-10-11T14:10:08.005Z,21.77
2017-10-11T14:12:37.366Z,22.13
2017-10-11T14:15:08.946Z,21.57
2017-10-11T14:17:51.995Z,20.37
2017-10-11T14:20:21.441Z,21.43
2017-10-11T14:22:51.990Z,19.97
2017-10-11T14:25:21.827Z,19.80
2017-10-11T14:27:52.019Z,21.63
2017-10-11T14:30:28.404Z,20.87
2017-10-11T14:32:59.526Z,19.63
2017-10-11T14:35:29.042Z,18.20
2017-10-11T14:37:57.908Z,19.23
2017-10-11T14:40:30.161Z,17.40
2017-10-11T14:43:02.222Z,19.90
2017-10-11T14:45:31.157Z,19.40
2017-10-11T14:48:03.002Z,20.73
2017-10-11T14:50:32.290Z,20.40
2017-10-11T14:53:02.841Z,20.53
2017-10-11T14:55:34.438Z,18.97
2017-10-11T14:58:15.581Z,20.43
2017-10-11T15:00:45.438Z,20.30
2017-10-11T15:03:19.792Z,20.90
2017-10-11T15:05:49.382Z,19.00
2017-10-11T15:08:20.887Z,18.80
2017-10-11T15:10:49.989Z,20.27
2017-10-11T15:13:19.331Z,18.90
2017-10-11T15:15:49.010Z,19.40
2017-10-11T15:18:18.711Z,21.13
2017-10-11T15:20:47.799Z,18.50
2017-10-11T15:23:17.071Z,17.70
2017-10-11T15:25:47.369Z,18.43
2017-10-11T15:28:18.930Z,17.27
2017-10-11T15:30:49.158Z,19.00
2017-10-11T15:33:22.514Z,17.43
2017-10-11T15:35:51.504Z,15.90
2017-10-11T15:38:27.157Z,14.90
2017-10-11T15:41:00.242Z,14.47
2017-10-11T15:43:32.728Z,15.23
2017-10-11T15:46:03.438Z,14.50
2017-10-11T15:48:35.805Z,13.87
2017-10-11T15:51:05.330Z,13.50
2017-10-11T15:53:37.438Z,14.07
2017-10-11T15:56:07.627Z,13.97
2017-10-11T15:58:38.853Z,13.63
2017-10-11T16:01:10.505Z,13.90
2017-10-11T16:03:41.638Z,11.90
2017-10-11T16:06:11.341Z,11.90
2017-10-11T16:08:45.109Z,11.70
2017-10-11T16:11:13.988Z,11.73
2017-10-11T16:13:43.125Z,10.93
2017-10-11T16:16:12.243Z,10.57
2017-10-11T16:18:41.761Z,9.87
2017-10-11T16:21:12.173Z,10.40
2017-10-11T16:23:43.265Z,11.53
2017-10-11T16:26:15.172Z,9.77
2017-10-11T16:28:46.894Z,11.20
2017-10-11T16:31:16.903Z,11.43
2017-10-11T16:33:46.765Z,10.50
2017-10-11T16:36:17.438Z,10.63
2017-10-11T16:38:46.219Z,10.30
2017-10-11T16:41:15.082Z,9.90
2017-10-11T16:43:45.842Z,10.87
2017-10-11T16:49:53.072Z,11.80
2017-10-11T16:52:31.348Z,11.20
2017-10-11T16:55:03.835Z,11.00
2017-10-11T16:57:49.982Z,11.87
2017-10-11T17:00:24.312Z,10.50
2017-10-11T17:03:03.405Z,11.23
2017-10-11T17:05:35.673Z,11.03
2017-10-11T17:08:12.536Z,11.70
2017-10-11T17:10:48.008Z,11.20
2017-10-11T17:13:36.431Z,10.40
2017-10-11T17:16:10.769Z,10.83
2017-10-11T17:18:45.651Z,9.60
2017-10-11T17:21:19.253Z,9.77
2017-10-11T17:23:54.448Z,10.20
2017-10-11T17:26:27.928Z,11.53
2017-10-11T17:29:07.979Z,10.63
2017-10-11T17:31:44.223Z,10.60
2017-10-11T17:34:18.523Z,10.00
2017-10-11T17:36:50.247Z,9.20
2017-10-11T17:39:29.146Z,9.83
2017-10-11T17:42:08.734Z,9.80
2017-10-11T17:44:42.254Z,10.47
2017-10-11T17:47:22.790Z,9.80
2017-10-11T17:49:56.194Z,11.07
2017-10-11T17:52:32.182Z,10.50
2017-10-11T17:55:10.528Z,10.80
2017-10-11T17:57:42.584Z,10.47
2017-10-11T18:00:21.858Z,10.77
2017-10-11T18:02:57.828Z,9.87
2017-10-11T18:05:30.720Z,10.37
2017-10-11T18:08:08.085Z,9.77
2017-10-11T18:10:41.562Z,10.33
2017-10-11T18:13:13.670Z,9.93
2017-10-11T18:15:54.710Z,10.27
2017-10-11T18:18:26.776Z,10.57
2017-10-11T18:20:59.286Z,10.13
2017-10-11T18:23:34.692Z,9.40
2017-10-11T18:26:10.440Z,10.90
2017-10-11T18:28:44.698Z,9.57
2017-10-11T18:31:16.595Z,9.10
2017-10-11T18:33:49.368Z,9.63
2017-10-11T18:36:21.281Z,9.43
2017-10-11T18:38:53.795Z,9.70
2017-10-11T18:41:25.902Z,8.60
2017-10-11T18:44:03.287Z,10.60
2017-10-11T18:46:40.080Z,8.97
2017-10-11T18:49:15.850Z,10.13
2017-10-11T18:51:49.649Z,8.60
2017-10-11T18:54:32.287Z,9.70
2017-10-11T18:57:05.447Z,9.17
2017-10-11T18:59:42.485Z,10.23
2017-10-11T19:02:17.415Z,10.33
2017-10-11T19:04:50.913Z,8.90
2017-10-11T19:07:29.166Z,10.03
2017-10-11T19:10:04.583Z,9.53
2017-10-11T19:12:38.868Z,8.93
2017-10-11T19:15:14.368Z,9.40
2017-10-11T19:17:52.912Z,7.83
2017-10-11T19:20:26.156Z,7.97
2017-10-11T19:22:58.103Z,8.07
2017-10-11T19:25:33.419Z,7.70
2017-10-11T19:28:06.758Z,7.90
2017-10-11T19:30:40.339Z,7.60
2017-10-11T19:33:13.335Z,7.33
2017-10-11T19:35:49.956Z,7.37
2017-10-11T19:38:22.595Z,7.93
2017-10-11T19:40:56.936Z,6.93
2017-10-11T19:43:30.190Z,7.07
2017-10-11T19:48:41.924Z,8.13
2017-10-11T19:51:14.801Z,8.97
2017-10-11T19:53:47.604Z,8.50
2017-10-11T19:56:30.863Z,8.60
2017-10-11T19:59:08.453Z,8.90
2017-10-11T20:01:43.038Z,8.23
2017-10-11T20:04:15.490Z,7.90
2017-10-11T20:06:47.904Z,8.70
2017-10-11T20:09:22.756Z,8.97
2017-10-11T20:11:56.252Z,8.50
2017-10-11T20:14:39.103Z,7.70
2017-10-11T20:17:18.424Z,8.57
2017-10-11T20:19:54.761Z,7.70
2017-10-11T20:22:40.836Z,8.60
2017-10-11T20:25:14.024Z,7.83
2017-10-11T20:27:50.937Z,8.37
2017-10-11T20:30:30.835Z,7.77
2017-10-11T20:33:05.788Z,7.70
2017-10-11T20:35:40.122Z,9.00
2017-10-11T20:38:18.524Z,8.37
2017-10-11T20:40:53.004Z,8.80
2017-10-11T20:43:27.329Z,8.77
2017-10-11T20:45:59.041Z,9.80
2017-10-11T20:48:31.419Z,10.53
2017-10-11T20:51:09.741Z,9.17
2017-10-11T20:53:43.515Z,9.97
2017-10-11T20:56:16.155Z,9.50
2017-10-11T20:58:49.525Z,9.13
2017-10-11T21:01:22.645Z,10.33
2017-10-11T21:03:57.298Z,9.67
2017-10-11T21:06:30.719Z,9.60
2017-10-11T21:09:05.218Z,8.13
2017-10-11T21:11:38.341Z,8.17
2017-10-11T21:14:10.780Z,9.73
2017-10-11T21:16:44.758Z,8.90
2017-10-11T21:19:19.625Z,9.00
2017-10-11T21:21:58.461Z,8.60
2017-10-11T21:24:32.390Z,9.20
2017-10-11T21:27:09.347Z,8.90
2017-10-11T21:29:42.487Z,8.20
2017-10-11T21:32:13.527Z,9.00
2017-10-11T21:34:44.821Z,9.07
2017-10-11T21:37:16.079Z,7.90
2017-10-11T21:39:48.496Z,9.13
2017-10-11T21:42:20.545Z,9.13
2017-10-11T21:44:53.956Z,8.03
2017-10-11T21:47:28.739Z,7.53
2017-10-11T21:53:41.753Z,8.20
2017-10-11T21:56:13.140Z,8.87
2017-10-11T21:58:44.271Z,7.57
2017-10-11T22:01:20.028Z,7.50
2017-10-11T22:03:57.658Z,7.50
2017-10-11T22:06:34.537Z,7.37
2017-10-11T22:09:15.258Z,7.77
2017-10-11T22:11:49.454Z,7.53
2017-10-11T22:14:22.006Z,7.30
2017-10-11T22:16:58.304Z,7.60
2017-10-11T22:19:31.719Z,6.90
2017-10-11T22:22:14.628Z,6.97
2017-10-11T22:24:50.778Z,6.97
2017-10-11T22:31:03.351Z,6.67
2017-10-11T22:33:35.856Z,7.10
2017-10-11T22:36:08.516Z,8.20
2017-10-11T22:38:43.854Z,7.10
2017-10-11T22:41:15.687Z,7.60
2017-10-11T22:43:54.291Z,8.13
2017-10-11T22:46:30.855Z,8.60
2017-10-11T22:49:15.846Z,8.70
2017-10-11T22:51:49.141Z,8.43
2017-10-11T22:54:20.933Z,7.70
2017-10-11T22:56:55.971Z,7.63
2017-10-11T22:59:28.984Z,7.70
2017-10-11T23:02:03.974Z,8.30
2017-10-11T23:04:38.997Z,7.20
2017-10-11T23:07:10.834Z,7.20
2017-10-11T23:09:43.949Z,7.10
2017-10-11T23:12:15.299Z,8.00
2017-10-11T23:14:48.134Z,7.60
2017-10-11T23:17:20.200Z,7.83
2017-10-11T23:19:53.060Z,7.40
2017-10-11T23:22:26.029Z,6.73
2017-10-11T23:25:00.431Z,7.53
2017-10-11T23:27:37.680Z,7.27
2017-10-11T23:30:18.409Z,6.90
2017-10-11T23:32:49.497Z,6.93
2017-10-11T23:35:26.170Z,7.90
2017-10-11T23:38:05.857Z,7.03
2017-10-11T23:40:37.205Z,7.40
2017-10-11T23:43:10.699Z,7.43
2017-10-11T23:45:44.035Z,7.37
2017-10-11T23:48:17.337Z,7.03
2017-10-11T23:50:56.781Z,8.13
2017-10-11T23:53:31.469Z,7.20
2017-10-11T23:56:03.375Z,7.60
2017-10-11T23:58:37.834Z,6.53
